createdAt,value
2022-12-31T00:00:30.747Z,0.8
2022-12-31T00:03:30.454Z,0.8
2022-12-31T00:06:29.292Z,0.8
2022-12-31T00:09:29.060Z,0.8
2022-12-31T00:12:30.104Z,0.8
2022-12-31T00:15:28.848Z,0.8
2022-12-31T00:18:29.008Z,0.8
2022-12-31T00:21:28.667Z,0.8
2022-12-31T00:24:30.762Z,0.8
2022-12-31T00:27:28.738Z,0.8
2022-12-31T00:30:30.064Z,0.8
2022-12-31T00:33:30.490Z,0.8
2022-12-31T00:36:29.378Z,0.8
2022-12-31T00:39:29.082Z,0.8
2022-12-31T00:42:30.197Z,0.8
2022-12-31T00:45:28.916Z,0.8
2022-12-31T00:48:28.640Z,0.8
2022-12-31T00:51:30.645Z,0.8
2022-12-31T00:54:28.515Z,0.8
2022-12-31T00:57:29.118Z,0.8
2022-12-31T01:00:36.489Z,0.8
2022-12-31T01:03:30.783Z,0.8
2022-12-31T01:06:28.541Z,0.8
2022-12-31T01:09:28.745Z,0.8
2022-12-31T01:12:29.877Z,0.8
2022-12-31T01:15:28.951Z,0.8
2022-12-31T01:18:28.623Z,0.8
2022-12-31T01:21:30.593Z,0.8
2022-12-31T01:24:29.440Z,0.8
2022-12-31T01:27:29.279Z,0.8
2022-12-31T01:30:30.370Z,0.8
2022-12-31T01:33:28.959Z,0.8
2022-12-31T01:36:28.624Z,0.8
2022-12-31T01:39:29.364Z,0.8
2022-12-31T01:42:30.269Z,0.8
2022-12-31T01:45:28.963Z,0.8
2022-12-31T01:48:28.649Z,0.8
2022-12-31T01:51:30.832Z,0.8
2022-12-31T01:54:28.657Z,0.8
2022-12-31T01:57:29.348Z,0.8
2022-12-31T02:00:30.537Z,0.8
2022-12-31T02:03:28.794Z,0.8
2022-12-31T02:06:28.387Z,0.8
2022-12-31T02:09:31.036Z,0.8
2022-12-31T02:12:29.105Z,0.8
2022-12-31T02:15:29.051Z,0.8
2022-12-31T02:18:28.658Z,0.8
2022-12-31T02:21:30.935Z,0.8
2022-12-31T02:24:28.472Z,0.8
2022-12-31T02:27:29.194Z,0.8
2022-12-31T02:30:30.396Z,0.8
2022-12-31T02:33:28.706Z,0.8
2022-12-31T02:36:29.064Z,0.8
2022-12-31T02:39:30.237Z,0.8
2022-12-31T02:42:29.033Z,0.8
2022-12-31T02:45:28.617Z,0.8
2022-12-31T02:48:30.582Z,0.8
2022-12-31T02:51:28.514Z,0.8
2022-12-31T02:54:29.116Z,0.8
2022-12-31T02:57:28.659Z,0.8
2022-12-31T03:00:30.743Z,0.8
2022-12-31T03:03:28.677Z,0.8
2022-12-31T03:06:28.390Z,0.8
2022-12-31T03:09:30.733Z,0.8
2022-12-31T03:12:28.563Z,0.8
2022-12-31T03:15:29.224Z,0.8
2022-12-31T03:18:35.169Z,0.8
2022-12-31T03:21:28.923Z,0.8
2022-12-31T03:24:28.532Z,0.8
2022-12-31T03:27:45.086Z,0.8
2022-12-31T03:30:28.994Z,0.8
2022-12-31T03:33:29.020Z,0.8
2022-12-31T03:36:28.745Z,0.8
2022-12-31T03:39:30.670Z,0.8
2022-12-31T03:42:28.309Z,0.8
2022-12-31T03:45:29.061Z,0.8
2022-12-31T03:48:29.960Z,0.8
2022-12-31T03:51:28.790Z,0.8
2022-12-31T03:54:29.290Z,0.8
2022-12-31T03:57:30.250Z,0.8
2022-12-31T04:00:29.239Z,0.8
2022-12-31T04:03:29.188Z,0.8
2022-12-31T04:06:30.037Z,0.8
2022-12-31T04:09:28.641Z,0.8
2022-12-31T04:12:29.168Z,0.8
2022-12-31T04:15:28.832Z,0.8
2022-12-31T04:18:29.814Z,0.8
2022-12-31T04:21:35.604Z,0.8
2022-12-31T04:24:29.273Z,0.8
2022-12-31T04:27:30.290Z,0.8
2022-12-31T04:30:30.116Z,0.8
2022-12-31T04:33:28.331Z,0.8
2022-12-31T04:36:30.483Z,0.8
2022-12-31T04:39:29.194Z,0.8
2022-12-31T04:42:29.051Z,0.8
2022-12-31T04:45:30.122Z,0.8
2022-12-31T04:48:28.940Z,0.8
2022-12-31T04:51:28.890Z,0.8
2022-12-31T04:54:28.506Z,0.8
2022-12-31T04:57:30.447Z,0.8
2022-12-31T05:00:29.529Z,0.8
2022-12-31T05:03:28.980Z,0.8
2022-12-31T05:06:30.119Z,0.8
2022-12-31T05:09:29.039Z,0.8
2022-12-31T05:12:28.746Z,0.8
2022-12-31T05:15:30.928Z,0.8
2022-12-31T05:18:28.837Z,0.8
2022-12-31T05:21:28.365Z,0.8
2022-12-31T05:24:30.817Z,0.8
2022-12-31T05:27:28.503Z,0.8
2022-12-31T05:30:29.563Z,0.8
2022-12-31T05:33:28.396Z,0.8
2022-12-31T05:36:30.353Z,0.8
2022-12-31T05:39:29.066Z,0.8
2022-12-31T05:42:28.466Z,0.8
2022-12-31T05:45:32.587Z,0.8
2022-12-31T05:48:29.592Z,0.8
2022-12-31T05:51:29.444Z,0.8
2022-12-31T05:54:29.794Z,0.8
2022-12-31T05:57:28.672Z,0.8
2022-12-31T06:00:29.362Z,0.8
2022-12-31T06:03:32.131Z,0.8
2022-12-31T06:06:28.426Z,0.8
2022-12-31T06:09:29.072Z,0.8
2022-12-31T06:12:28.577Z,0.8
2022-12-31T06:15:31.263Z,0.8
2022-12-31T06:18:28.570Z,0.8
2022-12-31T06:21:29.365Z,0.8
2022-12-31T06:24:30.781Z,0.8
2022-12-31T06:27:28.880Z,0.8
2022-12-31T06:30:29.507Z,0.8
2022-12-31T06:33:30.630Z,0.8
2022-12-31T06:36:28.362Z,0.8
2022-12-31T06:39:29.036Z,0.8
2022-12-31T06:42:29.975Z,0.8
2022-12-31T06:45:28.866Z,0.8
2022-12-31T06:48:28.226Z,0.8
2022-12-31T06:51:28.667Z,0.8
2022-12-31T06:54:30.123Z,0.8
2022-12-31T06:57:29.027Z,0.8
2022-12-31T07:00:28.721Z,0.8
2022-12-31T07:03:29.919Z,0.8
2022-12-31T07:06:28.865Z,0.8
2022-12-31T07:09:28.972Z,0.8
2022-12-31T07:12:30.321Z,0.8
2022-12-31T07:15:29.135Z,0.8
2022-12-31T07:18:28.700Z,0.8
2022-12-31T07:21:29.683Z,0.8
2022-12-31T07:24:28.317Z,0.8
2022-12-31T07:27:28.984Z,0.8
2022-12-31T07:30:28.695Z,0.8
2022-12-31T07:33:29.989Z,0.8
2022-12-31T07:36:28.878Z,0.8
2022-12-31T07:39:28.638Z,0.8
2022-12-31T07:42:30.798Z,0.9
2022-12-31T07:45:28.408Z,0.9
2022-12-31T07:48:28.311Z,0.9
2022-12-31T07:51:30.227Z,1.1
2022-12-31T07:54:29.206Z,1.1
2022-12-31T07:57:28.622Z,1.1
2022-12-31T08:00:31.253Z,1.4
2022-12-31T08:03:28.508Z,1.4
2022-12-31T08:06:29.247Z,1.4
2022-12-31T08:09:29.118Z,1.4
2022-12-31T08:12:30.231Z,1.8
2022-12-31T08:15:31.160Z,1.8
2022-12-31T08:18:28.894Z,1.8
2022-12-31T08:21:36.259Z,2.2
2022-12-31T08:24:29.186Z,2.2
2022-12-31T08:27:28.757Z,2.2
2022-12-31T08:30:29.777Z,2.6
2022-12-31T08:33:28.735Z,2.6
2022-12-31T08:36:29.566Z,2.6
2022-12-31T08:39:34.631Z,3
2022-12-31T08:42:29.219Z,3
2022-12-31T08:45:28.535Z,3
2022-12-31T08:48:29.178Z,3
2022-12-31T08:51:29.948Z,3.4
2022-12-31T08:54:28.407Z,3.4
2022-12-31T08:57:29.136Z,3.4
2022-12-31T09:00:30.195Z,3.7
2022-12-31T09:03:29.088Z,3.7
2022-12-31T09:06:28.764Z,3.7
2022-12-31T09:09:29.999Z,4
2022-12-31T09:12:28.625Z,4
2022-12-31T09:15:29.412Z,4
2022-12-31T09:18:34.469Z,4.1
2022-12-31T09:21:29.373Z,4.1
2022-12-31T09:24:28.843Z,4.1
2022-12-31T09:27:29.261Z,4.1
2022-12-31T09:30:30.383Z,4.1
2022-12-31T09:33:29.085Z,4.1
2022-12-31T09:36:28.731Z,4.1
2022-12-31T09:39:30.523Z,4.1
2022-12-31T09:42:29.482Z,4.1
2022-12-31T09:45:29.082Z,4.1
2022-12-31T09:48:30.008Z,4.1
2022-12-31T09:51:28.491Z,4.1
2022-12-31T09:54:29.091Z,4.1
2022-12-31T09:57:30.198Z,4.1
2022-12-31T10:00:28.939Z,4.1
2022-12-31T10:03:28.667Z,4.1
2022-12-31T10:06:28.312Z,4.1
2022-12-31T10:09:30.507Z,4.1
2022-12-31T10:12:29.118Z,4.1
2022-12-31T10:15:28.638Z,4.1
2022-12-31T10:18:30.401Z,4.1
2022-12-31T10:21:29.415Z,4.1
2022-12-31T10:24:28.865Z,4.1
2022-12-31T10:27:30.364Z,4
2022-12-31T10:30:29.534Z,4
2022-12-31T10:33:28.822Z,4
2022-12-31T10:36:29.667Z,4
2022-12-31T10:39:28.494Z,4
2022-12-31T10:42:28.956Z,4
2022-12-31T10:45:30.009Z,4
2022-12-31T10:48:28.816Z,4
2022-12-31T10:51:28.508Z,4
2022-12-31T10:54:29.345Z,4
2022-12-31T10:57:30.470Z,4
2022-12-31T11:00:29.499Z,4
2022-12-31T11:03:30.357Z,4
2022-12-31T11:06:30.669Z,4
2022-12-31T11:09:35.124Z,4
2022-12-31T11:12:28.585Z,4
2022-12-31T11:15:30.819Z,4
2022-12-31T11:18:29.124Z,4
2022-12-31T11:21:29.108Z,4
2022-12-31T11:24:30.240Z,4
2022-12-31T11:27:29.273Z,4
2022-12-31T11:30:28.900Z,4
2022-12-31T11:33:28.444Z,4
2022-12-31T11:36:29.233Z,4
2022-12-31T11:39:31.913Z,4
2022-12-31T11:42:28.665Z,4
2022-12-31T11:45:29.944Z,4
2022-12-31T11:48:33.193Z,4
2022-12-31T11:51:29.106Z,4
2022-12-31T11:54:30.096Z,4.1
2022-12-31T11:57:29.226Z,4.1
2022-12-31T12:00:29.411Z,4.1
2022-12-31T12:03:29.373Z,4.1
2022-12-31T12:06:29.061Z,4.1
2022-12-31T12:09:28.745Z,4.1
2022-12-31T12:12:28.376Z,4.1
2022-12-31T12:15:30.608Z,4.1
2022-12-31T12:18:28.539Z,4.1
2022-12-31T12:21:28.958Z,4.1
2022-12-31T12:24:30.670Z,4.1
2022-12-31T12:27:29.133Z,4.1
2022-12-31T12:30:29.846Z,4.1
2022-12-31T12:33:30.179Z,4.1
2022-12-31T12:36:28.941Z,4.1
2022-12-31T12:39:28.788Z,4.1
2022-12-31T12:42:30.415Z,4.1
2022-12-31T12:45:28.950Z,4.1
2022-12-31T12:48:29.256Z,4.1
2022-12-31T12:51:29.220Z,4.1
2022-12-31T12:54:28.780Z,4.1
2022-12-31T12:57:29.301Z,4.1
2022-12-31T13:00:29.432Z,4.1
2022-12-31T13:03:30.503Z,4.2
2022-12-31T13:06:28.694Z,4.2
2022-12-31T13:09:28.411Z,4.2
2022-12-31T13:13:25.625Z,4.2
2022-12-31T13:15:29.345Z,4.2
2022-12-31T13:18:28.787Z,4.2
2022-12-31T13:21:30.700Z,4.1
2022-12-31T13:24:29.256Z,4.1
2022-12-31T13:27:28.427Z,4.1
2022-12-31T13:30:29.274Z,4.1
2022-12-31T13:33:30.601Z,4.1
2022-12-31T13:36:29.191Z,4.1
2022-12-31T13:39:28.817Z,4.1
2022-12-31T13:42:30.636Z,4.1
2022-12-31T13:45:29.102Z,4.1
2022-12-31T13:48:28.588Z,4.1
2022-12-31T13:51:30.294Z,4.1
2022-12-31T13:54:28.954Z,4.1
2022-12-31T13:57:28.654Z,4.1
2022-12-31T14:00:30.388Z,4.1
2022-12-31T14:03:28.630Z,4.1
2022-12-31T14:06:29.038Z,4.1
2022-12-31T14:09:30.261Z,4.1
2022-12-31T14:12:28.552Z,4.1
2022-12-31T14:15:29.121Z,4.1
2022-12-31T14:18:28.609Z,4.1
2022-12-31T14:21:30.499Z,4
2022-12-31T14:24:28.965Z,4
2022-12-31T14:27:28.658Z,4
2022-12-31T14:30:32.326Z,3.9
2022-12-31T14:33:28.861Z,3.9
2022-12-31T14:36:28.415Z,3.9
2022-12-31T14:39:30.628Z,3.8
2022-12-31T14:42:28.420Z,3.8
2022-12-31T14:45:29.573Z,3.8
2022-12-31T14:48:30.846Z,3.7
2022-12-31T14:51:29.008Z,3.7
2022-12-31T14:54:29.627Z,3.7
2022-12-31T14:57:29.309Z,3.7
2022-12-31T15:00:31.077Z,3.5
2022-12-31T15:03:29.116Z,3.5
2022-12-31T15:06:28.515Z,3.5
2022-12-31T15:09:30.369Z,3.1
2022-12-31T15:12:29.141Z,3.1
2022-12-31T15:15:28.688Z,3.1
2022-12-31T15:18:30.379Z,2.7
2022-12-31T15:21:28.963Z,2.7
2022-12-31T15:24:28.604Z,2.7
2022-12-31T15:27:30.267Z,2.3
2022-12-31T15:30:28.768Z,2.3
2022-12-31T15:33:29.291Z,2.3
2022-12-31T15:36:28.804Z,2.3
2022-12-31T15:39:30.776Z,2
2022-12-31T15:42:50.054Z,2
2022-12-31T15:45:28.955Z,2
2022-12-31T15:48:30.968Z,1.6
2022-12-31T15:51:29.005Z,1.6
2022-12-31T15:54:28.730Z,1.6
2022-12-31T15:57:30.853Z,1.3
2022-12-31T16:00:29.424Z,1.3
2022-12-31T16:03:29.484Z,1.3
2022-12-31T16:06:30.649Z,1
2022-12-31T16:09:28.668Z,1
2022-12-31T16:12:44.827Z,1
2022-12-31T16:15:29.284Z,1
2022-12-31T16:18:28.945Z,1
2022-12-31T16:21:29.294Z,1
2022-12-31T16:24:29.065Z,1
2022-12-31T16:27:30.224Z,0.9
2022-12-31T16:30:32.650Z,0.9
2022-12-31T16:33:29.339Z,0.9
2022-12-31T16:36:30.144Z,0.8
2022-12-31T16:39:28.835Z,0.8
2022-12-31T16:42:28.409Z,0.8
2022-12-31T16:45:30.953Z,0.8
2022-12-31T16:48:28.673Z,0.8
2022-12-31T16:51:28.799Z,0.8
2022-12-31T16:54:28.424Z,0.8
2022-12-31T16:57:30.733Z,0.8
2022-12-31T17:00:32.159Z,0.8
2022-12-31T17:03:28.653Z,0.8
2022-12-31T17:06:30.697Z,0.8
2022-12-31T17:09:29.010Z,0.8
2022-12-31T17:12:28.421Z,0.8
2022-12-31T17:15:30.830Z,0.8
2022-12-31T17:18:28.679Z,0.8
2022-12-31T17:21:29.110Z,0.8
2022-12-31T17:24:29.801Z,0.8
2022-12-31T17:27:28.660Z,0.8
2022-12-31T17:30:30.742Z,0.8
2022-12-31T17:33:30.297Z,0.8
2022-12-31T17:36:28.910Z,0.8
2022-12-31T17:39:28.792Z,0.8
2022-12-31T17:42:28.797Z,0.8
2022-12-31T17:45:29.805Z,0.8
2022-12-31T17:48:29.123Z,0.8
2022-12-31T17:51:28.813Z,0.8
2022-12-31T17:54:30.471Z,0.8
2022-12-31T17:57:29.381Z,0.8
2022-12-31T18:00:36.643Z,0.8
2022-12-31T18:03:30.881Z,0.8
2022-12-31T18:06:28.808Z,0.8
2022-12-31T18:09:29.310Z,0.8
2022-12-31T18:12:30.387Z,0.8
2022-12-31T18:15:29.204Z,0.8
2022-12-31T18:18:29.026Z,0.8
2022-12-31T18:21:28.708Z,0.8
2022-12-31T18:24:30.655Z,0.8
2022-12-31T18:27:29.191Z,0.8
2022-12-31T18:30:35.882Z,0.8
2022-12-31T18:33:30.151Z,0.8
2022-12-31T18:36:28.653Z,0.8
2022-12-31T18:39:28.512Z,0.8
2022-12-31T18:42:30.406Z,0.8
2022-12-31T18:45:29.463Z,0.8
2022-12-31T18:48:28.324Z,0.8
2022-12-31T18:51:33.632Z,0.8
2022-12-31T18:54:28.965Z,0.8
2022-12-31T18:57:28.832Z,0.8
2022-12-31T19:00:28.394Z,0.8
2022-12-31T19:03:30.541Z,0.8
2022-12-31T19:06:28.652Z,0.8
2022-12-31T19:09:52.952Z,0.8
2022-12-31T19:12:29.814Z,0.8
2022-12-31T19:15:29.441Z,0.8
2022-12-31T19:18:29.502Z,0.8
2022-12-31T19:21:30.406Z,0.8
2022-12-31T19:24:29.034Z,0.8
2022-12-31T19:27:28.538Z,0.8
2022-12-31T19:30:30.505Z,0.8
2022-12-31T19:33:29.303Z,0.8
2022-12-31T19:36:28.549Z,0.8
2022-12-31T19:39:29.231Z,0.8
2022-12-31T19:42:28.733Z,0.8
2022-12-31T19:45:29.052Z,0.8
2022-12-31T19:48:33.486Z,0.8
2022-12-31T19:51:30.738Z,0.8
2022-12-31T19:54:36.308Z,0.8
2022-12-31T19:57:28.953Z,0.8
2022-12-31T20:00:28.467Z,0.8
2022-12-31T20:03:29.440Z,0.8
2022-12-31T20:06:29.216Z,0.8
2022-12-31T20:09:30.470Z,0.8
2022-12-31T20:12:28.344Z,0.8
2022-12-31T20:15:29.133Z,0.8
2022-12-31T20:18:28.794Z,0.8
2022-12-31T20:21:29.935Z,0.8
2022-12-31T20:24:28.747Z,0.8
2022-12-31T20:27:28.598Z,0.8
2022-12-31T20:30:37.445Z,0.8
2022-12-31T20:33:28.330Z,0.8
2022-12-31T20:36:29.032Z,0.8
2022-12-31T20:39:30.140Z,0.8
2022-12-31T20:42:28.914Z,0.8
2022-12-31T20:45:28.852Z,0.8
2022-12-31T20:48:29.937Z,0.8
2022-12-31T20:51:28.669Z,0.8
2022-12-31T20:54:29.216Z,0.8
2022-12-31T20:57:34.420Z,0.8
2022-12-31T21:00:31.892Z,0.8
2022-12-31T21:04:07.460Z,0.8
2022-12-31T21:06:28.659Z,0.8
2022-12-31T21:09:30.813Z,0.8
2022-12-31T21:12:28.965Z,0.8
2022-12-31T21:15:28.942Z,0.8
2022-12-31T21:18:30.463Z,0.8
2022-12-31T21:21:29.322Z,0.8
2022-12-31T21:24:28.773Z,0.8
2022-12-31T21:27:29.731Z,0.8
2022-12-31T21:30:30.368Z,0.8
2022-12-31T21:33:29.213Z,0.8
2022-12-31T21:36:28.840Z,0.8
2022-12-31T21:39:29.903Z,0.8
2022-12-31T21:42:28.879Z,0.8
2022-12-31T21:45:28.651Z,0.8
2022-12-31T21:48:30.770Z,0.8
2022-12-31T21:51:28.683Z,0.8
2022-12-31T21:54:29.392Z,0.8
2022-12-31T21:57:37.493Z,0.8
2022-12-31T22:00:44.236Z,0.8
2022-12-31T22:03:29.519Z,0.8
2022-12-31T22:06:29.928Z,0.8
2022-12-31T22:09:28.922Z,0.8
2022-12-31T22:12:28.574Z,0.8
2022-12-31T22:15:30.864Z,0.8
2022-12-31T22:18:28.800Z,0.8
2022-12-31T22:21:28.493Z,0.8
2022-12-31T22:24:29.034Z,0.8
2022-12-31T22:27:31.346Z,0.8
2022-12-31T22:30:29.447Z,0.8
2022-12-31T22:33:29.060Z,0.8
2022-12-31T22:36:30.276Z,0.8
2022-12-31T22:39:45.333Z,0.8
2022-12-31T22:42:28.891Z,0.8
2022-12-31T22:45:29.910Z,0.8
2022-12-31T22:48:28.805Z,0.8
2022-12-31T22:52:08.683Z,0.8
2022-12-31T22:54:29.173Z,0.8
2022-12-31T22:57:28.796Z,0.8
2022-12-31T23:00:28.749Z,0.8
2022-12-31T23:03:29.050Z,0.8
2022-12-31T23:06:30.334Z,0.8
2022-12-31T23:09:28.773Z,0.8
2022-12-31T23:12:28.522Z,0.8
2022-12-31T23:15:29.829Z,0.8
2022-12-31T23:18:28.959Z,0.8
2022-12-31T23:21:28.727Z,0.8
2022-12-31T23:24:29.713Z,0.8
2022-12-31T23:27:28.659Z,0.8
2022-12-31T23:30:29.293Z,0.8
2022-12-31T23:33:30.720Z,0.8
2022-12-31T23:36:28.494Z,0.8
2022-12-31T23:39:29.188Z,0.8
2022-12-31T23:42:28.907Z,0.8
2022-12-31T23:45:34.748Z,0.8
2022-12-31T23:48:28.395Z,0.8
2022-12-31T23:51:29.225Z,0.8
2022-12-31T23:54:28.970Z,0.8
2022-12-31T23:57:28.541Z,0.8
